Terminal Aerodrome Forecast
Issued by NWS

Home | Current Version | Previous Version | Text Only | Print | Product List | Glossary On
Versions: 1 2 3 4 5 6 7 8 9 10 11 12 13 14 15 16 17 18 19
000
FTUS42 KTBW 031127
TAFPGD
TAF
KPGD 031127Z 0312/0412 19007KT P6SM SCT025 BKN250
     FM031500 23010KT P6SM -RA VCTS SCT025CB BKN060 OVC120
      TEMPO 0315/0318 VRB15G25KT 2SM +TSRA BKN025CB
     FM031800 25013G23KT P6SM VCTS SCT030CB BKN050 OVC100
     FM040200 22005KT P6SM SCT025 SCT100 BKN250
     FM040600 20004KT P6SM SCT025 BKN250=

USA.gov is the U.S. government's official web portal to all federal, state and local government web resources and services.